Time;durP1;ratioP1;P1;durP2;ratioP2;P2;SDS_P1;SDS_P2;PMS_P1;PMS_P2;Temp;Humidity;BMP_temperature;BMP_pressure;BME280_temperature;BME280_humidity;BME280_pressure;Samples;Min_cycle;Max_cycle;Signal;HPM_P1;HPM_P2
2023/11/20 00:00:12;;;;;;;0.95;0.50;;;;;;;;;;5015074;28;20427;-80
2023/11/20 00:02:39;;;;;;;2.33;0.60;;;;;;;;;;5015418;28;20500;-80
2023/11/20 00:05:06;;;;;;;2.75;0.57;;;;;;;;;;5016132;28;20872;-80
2023/11/20 00:07:32;;;;;;;2.78;0.70;;;;;;;;;;5015670;28;20392;-80
2023/11/20 00:09:58;;;;;;;1.10;0.50;;;;;;;;;;5015545;28;20389;-80
2023/11/20 00:12:24;;;;;;;1.42;0.47;;;;;;;;;;5015750;28;20415;-80
2023/11/20 00:14:50;;;;;;;3.15;0.60;;;;;;;;;;5015936;28;20397;-80
2023/11/20 00:17:16;;;;;;;1.75;0.73;;;;;;;;;;5015215;28;20464;-80
2023/11/20 00:19:43;;;;;;;1.25;0.65;;;;;;;;;;5015896;28;20431;-80
2023/11/20 00:22:09;;;;;;;2.60;0.60;;;;;;;;;;5015451;28;20385;-80
2023/11/20 00:24:35;;;;;;;0.97;0.60;;;;;;;;;;5015389;28;20392;-80
2023/11/20 00:27:01;;;;;;;1.00;0.60;;;;;;;;;;5015386;28;20392;-80
2023/11/20 00:29:27;;;;;;;1.77;0.75;;;;;;;;;;5015069;28;21024;-80
2023/11/20 00:31:53;;;;;;;1.70;0.70;;;;;;;;;;5015469;28;20381;-80
2023/11/20 00:34:19;;;;;;;1.17;0.70;;;;;;;;;;5017461;28;20875;-80
2023/11/20 00:36:45;;;;;;;1.85;0.60;;;;;;;;;;5035100;28;20422;-80
2023/11/20 00:39:11;;;;;;;1.13;0.50;;;;;;;;;;5034042;28;20379;-80
2023/11/20 00:41:37;;;;;;;2.30;0.65;;;;;;;;;;5030151;28;21177;-80
2023/11/20 00:44:03;;;;;;;2.25;0.50;;;;;;;;;;5015422;28;20475;-80
2023/11/20 00:46:29;;;;;;;2.53;0.55;;;;;;;;;;5015096;28;20388;-79
2023/11/20 00:48:55;;;;;;;2.00;0.70;;;;;;;;;;5015116;28;20381;-79
2023/11/20 00:51:22;;;;;;;1.73;0.50;;;;;;;;;;5016077;28;20377;-79
2023/11/20 00:53:49;;;;;;;1.67;0.60;;;;;;;;;;5034779;28;20375;-79
2023/11/20 00:56:18;;;;;;;1.30;0.50;;;;;;;;;;5034681;28;20411;-79
2023/11/20 00:58:44;;;;;;;2.83;0.63;;;;;;;;;;5034382;28;20384;-79
2023/11/20 01:01:10;;;;;;;1.95;0.60;;;;;;;;;;5034276;28;20395;-80
2023/11/20 01:03:37;;;;;;;1.63;0.80;;;;;;;;;;5034392;28;20422;-80
2023/11/20 01:06:04;;;;;;;3.40;1.90;;;;;;;;;;5034729;28;20421;-79
2023/11/20 01:08:30;;;;;;;1.80;1.27;;;;;;;;;;5034352;28;20407;-79
2023/11/20 01:10:57;;;;;;;1.95;0.70;;;;;;;;;;5032442;28;20439;-79
2023/11/20 01:13:23;;;;;;;1.30;0.77;;;;;;;;;;5037768;28;20399;-79
2023/11/20 01:15:49;;;;;;;1.52;0.60;;;;;;;;;;5037953;28;20721;-79
2023/11/20 01:18:15;;;;;;;1.23;0.82;;;;;;;;;;5038293;28;20871;-79
2023/11/20 01:20:41;;;;;;;1.38;0.70;;;;;;;;;;5037504;28;20389;-79
2023/11/20 01:23:07;;;;;;;0.82;0.50;;;;;;;;;;5037870;28;20410;-79
2023/11/20 01:25:33;;;;;;;1.43;0.40;;;;;;;;;;5038085;28;20906;-79
2023/11/20 01:27:59;;;;;;;1.10;0.43;;;;;;;;;;5037609;28;20424;-79
2023/11/20 01:30:26;;;;;;;1.92;0.70;;;;;;;;;;5038092;28;20379;-79
2023/11/20 01:32:52;;;;;;;1.63;0.50;;;;;;;;;;5037559;28;20387;-79
2023/11/20 01:35:18;;;;;;;1.48;0.70;;;;;;;;;;5037746;28;20782;-79
2023/11/20 01:37:44;;;;;;;2.28;0.57;;;;;;;;;;5037469;28;20390;-79
2023/11/20 01:40:14;;;;;;;2.90;0.70;;;;;;;;;;5037431;28;20464;-79
2023/11/20 01:42:40;;;;;;;1.27;0.50;;;;;;;;;;5037491;28;20421;-79
2023/11/20 01:45:09;;;;;;;1.05;0.50;;;;;;;;;;5032681;28;20390;-79
2023/11/20 01:47:36;;;;;;;2.45;0.80;;;;;;;;;;5017789;28;20441;-79
2023/11/20 01:50:04;;;;;;;1.60;0.60;;;;;;;;;;5017958;28;20405;-79
2023/11/20 01:52:30;;;;;;;1.08;0.70;;;;;;;;;;5017532;28;20380;-79
2023/11/20 01:54:56;;;;;;;1.30;0.63;;;;;;;;;;5017628;28;20381;-79
2023/11/20 01:57:22;;;;;;;1.80;0.60;;;;;;;;;;5017473;28;20750;-79
2023/11/20 01:59:48;;;;;;;1.33;0.60;;;;;;;;;;5017082;28;20750;-79
2023/11/20 02:02:14;;;;;;;1.67;0.60;;;;;;;;;;5017026;28;20385;-79
2023/11/20 02:04:41;;;;;;;1.70;0.50;;;;;;;;;;5017648;28;20434;-80
2023/11/20 02:07:08;;;;;;;2.88;0.77;;;;;;;;;;5016915;28;21150;-79
2023/11/20 02:09:35;;;;;;;2.88;0.57;;;;;;;;;;5016982;28;20409;-79
2023/11/20 02:12:01;;;;;;;2.28;0.70;;;;;;;;;;5017811;28;20405;-79
2023/11/20 02:14:28;;;;;;;2.47;0.80;;;;;;;;;;5017122;28;20407;-79
2023/11/20 02:16:54;;;;;;;1.85;0.70;;;;;;;;;;5017321;28;20392;-79
2023/11/20 02:19:20;;;;;;;2.70;0.77;;;;;;;;;;5017231;28;20787;-79
2023/11/20 02:21:45;;;;;;;2.77;0.70;;;;;;;;;;5016961;28;20424;-79
2023/11/20 02:24:12;;;;;;;4.63;0.77;;;;;;;;;;5017298;28;20439;-79
2023/11/20 02:26:40;;;;;;;4.43;1.10;;;;;;;;;;5018360;28;20398;-79
2023/11/20 02:29:07;;;;;;;3.20;0.80;;;;;;;;;;5036877;28;20383;-79
2023/11/20 02:31:33;;;;;;;2.70;0.95;;;;;;;;;;5036600;28;20402;-79
2023/11/20 02:34:02;;;;;;;2.65;0.90;;;;;;;;;;5036911;28;20737;-79
2023/11/20 02:36:28;;;;;;;4.22;0.90;;;;;;;;;;5036719;28;20383;-79
2023/11/20 02:38:55;;;;;;;3.78;0.90;;;;;;;;;;5036644;28;20736;-79
2023/11/20 02:41:21;;;;;;;3.28;0.82;;;;;;;;;;5036910;28;20760;-79
2023/11/20 02:43:47;;;;;;;2.95;1.17;;;;;;;;;;5036281;28;20900;-79
2023/11/20 02:46:13;;;;;;;2.40;0.60;;;;;;;;;;5036809;28;20387;-80
2023/11/20 02:48:40;;;;;;;1.55;0.60;;;;;;;;;;5028335;28;20515;-80
2023/11/20 02:51:06;;;;;;;2.20;0.90;;;;;;;;;;5016406;28;20423;-80
2023/11/20 02:53:32;;;;;;;2.97;0.90;;;;;;;;;;5016548;28;20447;-80
2023/11/20 02:55:58;;;;;;;3.50;0.75;;;;;;;;;;5015812;28;20389;-80
2023/11/20 02:58:24;;;;;;;2.93;0.80;;;;;;;;;;5021112;28;20422;-80
2023/11/20 03:00:52;;;;;;;2.58;0.90;;;;;;;;;;5035949;28;20395;-80
2023/11/20 03:03:18;;;;;;;1.52;0.70;;;;;;;;;;5035724;28;20422;-80
2023/11/20 03:05:44;;;;;;;2.13;0.70;;;;;;;;;;5036164;28;20414;-81
2023/11/20 03:08:11;;;;;;;3.05;0.80;;;;;;;;;;5036149;28;20383;-80
2023/11/20 03:10:37;;;;;;;3.70;0.80;;;;;;;;;;5022424;28;20392;-80
2023/11/20 03:13:03;;;;;;;2.55;0.70;;;;;;;;;;5016293;28;20396;-80
2023/11/20 03:15:29;;;;;;;3.13;0.80;;;;;;;;;;5016198;28;20396;-80
2023/11/20 03:17:55;;;;;;;3.25;0.82;;;;;;;;;;5016678;28;20491;-80
2023/11/20 03:20:21;;;;;;;3.05;0.70;;;;;;;;;;5016545;28;20396;-80
2023/11/20 03:22:47;;;;;;;5.03;0.80;;;;;;;;;;5015874;28;21023;-80
2023/11/20 03:25:13;;;;;;;2.60;0.70;;;;;;;;;;5015899;28;20724;-80
2023/11/20 03:27:40;;;;;;;2.80;1.00;;;;;;;;;;5015316;28;20457;-80
2023/11/20 03:30:09;;;;;;;3.33;0.80;;;;;;;;;;5016223;28;20393;-80
2023/11/20 03:32:36;;;;;;;2.90;0.85;;;;;;;;;;5015329;28;20436;-80
2023/11/20 03:35:05;;;;;;;2.13;0.70;;;;;;;;;;5014510;28;20395;-78
2023/11/20 03:37:31;;;;;;;2.25;0.70;;;;;;;;;;5013708;28;20381;-78
2023/11/20 03:39:57;;;;;;;2.33;0.85;;;;;;;;;;5013539;28;20413;-78
2023/11/20 03:42:23;;;;;;;3.00;0.60;;;;;;;;;;5013271;28;20734;-78
2023/11/20 03:44:52;;;;;;;2.08;0.70;;;;;;;;;;5014998;28;20385;-79
2023/11/20 03:47:18;;;;;;;3.67;0.95;;;;;;;;;;5016146;28;20377;-79
2023/11/20 03:49:44;;;;;;;2.22;0.70;;;;;;;;;;5015916;28;20392;-79
2023/11/20 03:52:10;;;;;;;3.47;1.00;;;;;;;;;;5015716;28;20381;-79
2023/11/20 03:54:36;;;;;;;2.95;0.98;;;;;;;;;;5015631;28;20411;-79
2023/11/20 03:57:03;;;;;;;3.60;0.90;;;;;;;;;;5015362;28;20385;-79
2023/11/20 03:59:29;;;;;;;2.78;0.82;;;;;;;;;;5016684;28;20388;-79
2023/11/20 04:01:55;;;;;;;2.67;0.93;;;;;;;;;;5015545;28;20403;-79
2023/11/20 04:04:21;;;;;;;2.88;1.00;;;;;;;;;;5015888;28;20424;-79
2023/11/20 04:06:47;;;;;;;2.65;0.75;;;;;;;;;;5015760;28;20407;-79
2023/11/20 04:09:13;;;;;;;3.97;1.05;;;;;;;;;;5015656;28;20475;-79
2023/11/20 04:11:40;;;;;;;2.25;0.80;;;;;;;;;;5015154;28;20782;-79
2023/11/20 04:14:06;;;;;;;2.20;0.80;;;;;;;;;;5015462;28;20488;-79
2023/11/20 04:16:33;;;;;;;4.38;1.10;;;;;;;;;;5015115;28;20416;-79
2023/11/20 04:18:59;;;;;;;2.33;0.60;;;;;;;;;;5015249;28;20400;-79
2023/11/20 04:21:25;;;;;;;2.60;0.93;;;;;;;;;;5032721;28;20387;-79
2023/11/20 04:23:55;;;;;;;4.63;0.90;;;;;;;;;;5034721;28;20413;-79
2023/11/20 04:26:21;;;;;;;3.90;1.02;;;;;;;;;;5034129;28;20433;-78
2023/11/20 04:28:47;;;;;;;3.28;0.95;;;;;;;;;;5032159;28;20380;-78
2023/11/20 04:31:13;;;;;;;3.10;0.82;;;;;;;;;;5032836;28;20942;-78
2023/11/20 04:33:42;;;;;;;3.40;0.95;;;;;;;;;;5033816;28;20396;-78
2023/11/20 04:36:09;;;;;;;2.97;0.90;;;;;;;;;;5033472;28;20846;-78
2023/11/20 04:38:35;;;;;;;3.20;1.00;;;;;;;;;;5033041;28;20402;-78
2023/11/20 04:41:02;;;;;;;2.85;1.08;;;;;;;;;;5033237;28;20379;-78
2023/11/20 04:43:28;;;;;;;3.75;1.02;;;;;;;;;;5033260;28;20414;-78
2023/11/20 04:45:54;;;;;;;2.35;0.80;;;;;;;;;;5033184;28;20384;-78
2023/11/20 04:48:20;;;;;;;5.32;1.02;;;;;;;;;;5032318;28;20386;-78
2023/11/20 04:50:46;;;;;;;4.53;1.10;;;;;;;;;;5031503;28;20391;-78
2023/11/20 04:53:12;;;;;;;3.40;0.80;;;;;;;;;;5032324;28;20383;-79
2023/11/20 04:55:38;;;;;;;2.90;0.83;;;;;;;;;;5031475;28;20418;-78
2023/11/20 04:58:04;;;;;;;4.18;1.00;;;;;;;;;;5032091;28;20726;-79
2023/11/20 05:00:30;;;;;;;3.65;1.15;;;;;;;;;;5032086;28;20393;-79
2023/11/20 05:02:56;;;;;;;4.13;1.08;;;;;;;;;;5032149;28;20486;-78
2023/11/20 05:05:22;;;;;;;4.35;1.10;;;;;;;;;;5031649;28;20487;-78
2023/11/20 05:07:49;;;;;;;3.13;0.90;;;;;;;;;;5029460;28;20485;-78
2023/11/20 05:10:15;;;;;;;3.67;1.20;;;;;;;;;;5012580;28;20396;-81
2023/11/20 05:12:41;;;;;;;3.10;0.90;;;;;;;;;;5012754;28;20385;-78
2023/11/20 05:15:08;;;;;;;5.57;1.25;;;;;;;;;;5014232;28;20389;-81
2023/11/20 05:17:34;;;;;;;3.53;0.90;;;;;;;;;;5012100;28;20403;-80
2023/11/20 05:20:00;;;;;;;4.93;1.05;;;;;;;;;;5029428;28;20397;-79
2023/11/20 05:22:26;;;;;;;3.63;1.00;;;;;;;;;;5034181;28;20371;-81
2023/11/20 05:24:52;;;;;;;4.45;1.20;;;;;;;;;;5033697;28;20452;-79
2023/11/20 05:27:19;;;;;;;3.25;0.82;;;;;;;;;;5034125;28;20383;-79
2023/11/20 05:29:48;;;;;;;3.55;0.80;;;;;;;;;;5033804;28;20415;-79
2023/11/20 05:32:14;;;;;;;2.22;0.90;;;;;;;;;;5034821;28;20382;-79
2023/11/20 05:34:40;;;;;;;4.43;1.00;;;;;;;;;;5033985;28;20457;-79
2023/11/20 05:37:06;;;;;;;3.75;1.00;;;;;;;;;;5033237;28;20402;-79
2023/11/20 05:39:33;;;;;;;3.55;1.05;;;;;;;;;;5033916;28;20821;-79
2023/11/20 05:41:59;;;;;;;3.42;1.00;;;;;;;;;;5033642;28;20705;-79
2023/11/20 05:44:25;;;;;;;3.13;1.00;;;;;;;;;;5033619;28;20482;-79
2023/11/20 05:46:51;;;;;;;5.13;1.00;;;;;;;;;;5033022;28;20433;-79
2023/11/20 05:49:17;;;;;;;5.00;1.27;;;;;;;;;;5033883;28;20415;-79
2023/11/20 05:51:43;;;;;;;4.20;1.23;;;;;;;;;;5033752;28;20398;-79
2023/11/20 05:54:09;;;;;;;2.65;0.80;;;;;;;;;;5033320;28;20740;-79
2023/11/20 05:56:38;;;;;;;2.92;1.00;;;;;;;;;;5033413;28;20536;-79
2023/11/20 05:59:04;;;;;;;3.60;1.17;;;;;;;;;;5036946;28;20884;-79
2023/11/20 06:01:37;;;;;;;4.15;1.25;;;;;;;;;;5036783;28;20379;-80
2023/11/20 06:04:04;;;;;;;4.97;1.23;;;;;;;;;;5036466;28;20940;-79
2023/11/20 06:06:30;;;;;;;4.43;1.38;;;;;;;;;;5037481;28;20375;-79
2023/11/20 06:08:56;;;;;;;5.55;1.38;;;;;;;;;;5038112;28;20866;-79
2023/11/20 06:11:22;;;;;;;3.60;1.48;;;;;;;;;;5037229;28;20388;-80
2023/11/20 06:13:48;;;;;;;6.07;1.60;;;;;;;;;;5037124;28;20453;-79
2023/11/20 06:16:15;;;;;;;5.53;1.02;;;;;;;;;;5036456;28;20406;-80
2023/11/20 06:18:41;;;;;;;2.83;1.08;;;;;;;;;;5036704;28;20736;-79
2023/11/20 06:21:08;;;;;;;4.68;1.17;;;;;;;;;;5036464;28;20845;-79
2023/11/20 06:23:34;;;;;;;4.68;1.10;;;;;;;;;;5036717;28;20407;-79
2023/11/20 06:26:00;;;;;;;3.95;1.05;;;;;;;;;;5036783;28;20389;-79
2023/11/20 06:28:26;;;;;;;4.03;1.38;;;;;;;;;;5033175;28;20735;-79
2023/11/20 06:30:52;;;;;;;5.28;1.40;;;;;;;;;;5036005;28;20478;-80
2023/11/20 06:33:19;;;;;;;4.43;1.23;;;;;;;;;;5036482;28;20371;-80
2023/11/20 06:35:45;;;;;;;3.22;1.13;;;;;;;;;;5036041;28;20868;-80
2023/11/20 06:38:11;;;;;;;3.30;1.10;;;;;;;;;;5036711;28;20467;-80
2023/11/20 06:40:38;;;;;;;3.78;1.00;;;;;;;;;;5018633;28;20399;-80
2023/11/20 06:43:05;;;;;;;3.78;0.95;;;;;;;;;;5036090;28;20399;-80
2023/11/20 06:45:31;;;;;;;4.63;1.17;;;;;;;;;;5035579;28;20415;-80
2023/11/20 06:47:57;;;;;;;3.50;1.05;;;;;;;;;;5035984;28;20383;-80
2023/11/20 06:50:27;;;;;;;3.45;1.25;;;;;;;;;;5032947;28;20769;-79
2023/11/20 06:52:53;;;;;;;4.43;1.27;;;;;;;;;;5016319;28;20468;-79
2023/11/20 06:55:19;;;;;;;3.40;1.05;;;;;;;;;;5015828;28;20524;-79
2023/11/20 06:57:46;;;;;;;4.13;1.20;;;;;;;;;;5032795;28;20837;-81
2023/11/20 07:00:12;;;;;;;2.67;1.00;;;;;;;;;;5037238;28;20387;-81
2023/11/20 07:02:42;;;;;;;4.97;1.20;;;;;;;;;;5038600;28;20502;-81
2023/11/20 07:05:17;;;;;;;4.73;1.10;;;;;;;;;;5037506;28;20943;-81
2023/11/20 07:07:53;;;;;;;3.97;1.10;;;;;;;;;;5037478;28;20411;-82
2023/11/20 07:10:25;;;;;;;2.97;1.08;;;;;;;;;;5037616;28;20387;-81
2023/11/20 07:12:53;;;;;;;4.87;1.40;;;;;;;;;;5032086;28;20387;-81
2023/11/20 07:15:19;;;;;;;2.65;1.13;;;;;;;;;;5018091;28;20385;-81
2023/11/20 07:17:45;;;;;;;4.22;1.17;;;;;;;;;;5017127;28;20450;-81
2023/11/20 07:20:11;;;;;;;3.50;1.17;;;;;;;;;;5017589;28;20381;-81
2023/11/20 07:22:37;;;;;;;2.97;1.02;;;;;;;;;;5017540;28;22340;-81
2023/11/20 07:25:04;;;;;;;3.10;1.08;;;;;;;;;;5017655;28;20885;-81
2023/11/20 07:27:31;;;;;;;4.13;1.17;;;;;;;;;;5017723;28;20388;-83
2023/11/20 07:29:57;;;;;;;3.30;1.17;;;;;;;;;;5020976;28;20389;-83
2023/11/20 07:32:23;;;;;;;2.70;0.95;;;;;;;;;;5032479;28;20391;-84
2023/11/20 07:34:49;;;;;;;3.13;1.20;;;;;;;;;;5040189;28;20817;-84
2023/11/20 07:37:16;;;;;;;4.43;1.27;;;;;;;;;;5022597;28;20420;-84
2023/11/20 07:39:42;;;;;;;5.68;1.40;;;;;;;;;;5019436;28;20866;-81
2023/11/20 07:42:09;;;;;;;3.83;0.90;;;;;;;;;;5018883;28;20381;-84
2023/11/20 07:44:35;;;;;;;3.90;1.10;;;;;;;;;;5020045;28;20507;-81
2023/11/20 07:47:01;;;;;;;3.22;1.27;;;;;;;;;;5037322;28;20390;-81
2023/11/20 07:49:27;;;;;;;3.17;1.00;;;;;;;;;;5037431;28;20383;-81
2023/11/20 07:51:53;;;;;;;3.83;0.93;;;;;;;;;;5038167;28;20982;-81
2023/11/20 07:54:19;;;;;;;4.18;1.20;;;;;;;;;;5039478;28;20390;-82
2023/11/20 07:56:45;;;;;;;5.45;1.20;;;;;;;;;;5039877;28;20403;-82
2023/11/20 07:59:11;;;;;;;3.87;1.10;;;;;;;;;;5038940;28;20386;-82
2023/11/20 08:01:37;;;;;;;3.72;0.98;;;;;;;;;;5039091;28;20413;-82
2023/11/20 08:04:04;;;;;;;2.90;1.10;;;;;;;;;;5037499;28;20414;-82
2023/11/20 08:06:31;;;;;;;3.80;1.20;;;;;;;;;;5038610;28;20426;-81
2023/11/20 08:08:58;;;;;;;6.10;1.40;;;;;;;;;;5040231;28;20853;-81
2023/11/20 08:11:25;;;;;;;3.58;1.13;;;;;;;;;;5039382;28;20466;-81
2023/11/20 08:13:51;;;;;;;7.53;1.40;;;;;;;;;;5040381;28;20706;-81
2023/11/20 08:16:17;;;;;;;5.50;1.40;;;;;;;;;;5039262;28;20394;-81
2023/11/20 08:18:43;;;;;;;5.45;1.38;;;;;;;;;;5039640;28;20395;-81
2023/11/20 08:21:09;;;;;;;4.05;1.13;;;;;;;;;;5038055;28;20386;-82
2023/11/20 08:23:35;;;;;;;4.13;1.37;;;;;;;;;;5038707;28;20415;-82
2023/11/20 08:26:01;;;;;;;3.90;1.23;;;;;;;;;;5038439;28;20441;-84
2023/11/20 08:28:27;;;;;;;5.50;1.13;;;;;;;;;;5026372;28;20384;-82
2023/11/20 08:30:53;;;;;;;4.03;1.13;;;;;;;;;;5017688;28;20384;-82
2023/11/20 08:33:19;;;;;;;5.20;1.10;;;;;;;;;;5018521;28;20794;-82
2023/11/20 08:35:45;;;;;;;6.20;1.38;;;;;;;;;;5017811;28;20403;-82
2023/11/20 08:38:12;;;;;;;4.70;1.42;;;;;;;;;;5017307;28;20385;-82
2023/11/20 08:40:38;;;;;;;4.55;1.30;;;;;;;;;;5019185;28;20391;-82
2023/11/20 08:43:04;;;;;;;5.95;1.58;;;;;;;;;;5020277;28;20424;-82
2023/11/20 08:45:30;;;;;;;3.40;1.10;;;;;;;;;;5019662;28;20385;-83
2023/11/20 08:47:56;;;;;;;4.03;1.20;;;;;;;;;;5019536;28;20751;-82
2023/11/20 08:50:25;;;;;;;5.10;1.30;;;;;;;;;;5020541;28;21097;-82
2023/11/20 08:52:52;;;;;;;3.17;1.20;;;;;;;;;;5024715;28;20394;-82
2023/11/20 08:55:18;;;;;;;3.93;1.10;;;;;;;;;;5039416;28;20456;-82
2023/11/20 08:57:44;;;;;;;6.25;1.52;;;;;;;;;;5039997;28;21054;-82
2023/11/20 09:00:14;;;;;;;4.27;1.33;;;;;;;;;;5040169;28;20391;-82
2023/11/20 09:02:41;;;;;;;7.72;1.58;;;;;;;;;;5038904;28;20883;-82
2023/11/20 09:05:07;;;;;;;4.80;1.30;;;;;;;;;;5020959;28;20865;-82
2023/11/20 09:07:34;;;;;;;5.75;1.42;;;;;;;;;;5017924;28;20484;-82
2023/11/20 09:10:00;;;;;;;6.27;1.63;;;;;;;;;;5018066;28;20481;-82
2023/11/20 09:12:26;;;;;;;4.97;1.10;;;;;;;;;;5018192;28;20420;-83
2023/11/20 09:14:52;;;;;;;5.22;1.42;;;;;;;;;;5018150;28;20495;-83
2023/11/20 09:17:21;;;;;;;6.23;1.17;;;;;;;;;;5018748;28;20400;-83
2023/11/20 09:19:47;;;;;;;5.88;1.60;;;;;;;;;;5018554;28;20479;-82
2023/11/20 09:22:14;;;;;;;4.53;1.13;;;;;;;;;;5017314;28;20435;-82
2023/11/20 09:24:40;;;;;;;5.38;1.60;;;;;;;;;;5018681;28;20417;-82
2023/11/20 09:27:10;;;;;;;5.95;1.50;;;;;;;;;;5017250;28;20412;-82
2023/11/20 09:29:36;;;;;;;5.28;1.50;;;;;;;;;;5017755;28;20419;-83
2023/11/20 09:32:02;;;;;;;7.95;1.48;;;;;;;;;;5018546;28;20377;-82
2023/11/20 09:34:29;;;;;;;8.93;1.70;;;;;;;;;;5022408;28;20388;-83
2023/11/20 09:36:55;;;;;;;4.22;1.27;;;;;;;;;;5022054;28;20416;-83
2023/11/20 09:39:21;;;;;;;7.20;1.75;;;;;;;;;;5022703;28;20384;-82
2023/11/20 09:41:47;;;;;;;6.07;1.58;;;;;;;;;;5022571;28;20392;-82
2023/11/20 09:44:13;;;;;;;5.85;1.58;;;;;;;;;;5021542;28;20464;-82
2023/11/20 09:46:46;;;;;;;7.33;1.83;;;;;;;;;;5022460;28;20397;-83
2023/11/20 09:49:31;;;;;;;6.38;1.60;;;;;;;;;;5020878;28;20407;-82
2023/11/20 09:51:57;;;;;;;7.75;1.58;;;;;;;;;;5021763;28;20392;-83
2023/11/20 09:54:24;;;;;;;5.40;1.33;;;;;;;;;;5021316;28;20404;-82
2023/11/20 09:56:50;;;;;;;4.50;1.25;;;;;;;;;;5021535;28;20429;-82
2023/11/20 09:59:17;;;;;;;5.93;1.55;;;;;;;;;;5021129;28;20476;-82
2023/11/20 10:01:45;;;;;;;5.32;1.30;;;;;;;;;;5021857;28;20389;-82
2023/11/20 10:04:16;;;;;;;4.47;1.40;;;;;;;;;;5037749;28;21727;-82
2023/11/20 10:06:43;;;;;;;5.95;1.40;;;;;;;;;;5040084;28;20387;-82
2023/11/20 10:09:09;;;;;;;5.65;1.30;;;;;;;;;;5040999;28;20415;-82
2023/11/20 10:11:35;;;;;;;5.80;1.58;;;;;;;;;;5041606;28;20718;-82
2023/11/20 10:14:01;;;;;;;5.60;1.50;;;;;;;;;;5040685;28;20421;-83
2023/11/20 10:16:32;;;;;;;4.93;1.57;;;;;;;;;;5039826;28;20394;-83
2023/11/20 10:18:58;;;;;;;4.95;1.25;;;;;;;;;;5040813;28;20399;-82
2023/11/20 10:21:25;;;;;;;7.03;1.77;;;;;;;;;;5039573;28;20398;-82
2023/11/20 10:23:57;;;;;;;4.90;1.25;;;;;;;;;;5041294;28;20490;-83
2023/11/20 10:26:23;;;;;;;9.48;1.77;;;;;;;;;;5040207;28;20406;-82
2023/11/20 10:28:49;;;;;;;6.28;1.77;;;;;;;;;;5039080;28;20383;-81
2023/11/20 10:31:15;;;;;;;7.28;1.60;;;;;;;;;;5038896;28;20449;-82
2023/11/20 10:33:43;;;;;;;6.00;1.60;;;;;;;;;;5027914;28;20396;-82
2023/11/20 10:36:13;;;;;;;5.82;1.58;;;;;;;;;;5019096;28;20385;-81
2023/11/20 10:38:39;;;;;;;4.80;1.40;;;;;;;;;;5040710;28;20406;-82
2023/11/20 10:41:08;;;;;;;5.43;1.40;;;;;;;;;;5040860;28;20425;-82
2023/11/20 10:43:36;;;;;;;7.05;1.33;;;;;;;;;;5040407;28;20410;-82
2023/11/20 10:46:02;;;;;;;6.35;1.58;;;;;;;;;;5040394;28;20395;-82
2023/11/20 10:48:38;;;;;;;5.05;1.40;;;;;;;;;;5040734;28;20450;-82
2023/11/20 10:51:11;;;;;;;5.95;1.52;;;;;;;;;;5040469;28;20433;-83
2023/11/20 10:53:38;;;;;;;4.63;1.30;;;;;;;;;;5039812;28;20494;-82
2023/11/20 10:56:05;;;;;;;5.70;1.52;;;;;;;;;;5035317;28;20447;-82
2023/11/20 10:58:31;;;;;;;5.68;1.30;;;;;;;;;;5023211;28;20392;-83
2023/11/20 11:01:01;;;;;;;5.00;1.40;;;;;;;;;;5034035;28;20395;-82
2023/11/20 11:03:30;;;;;;;9.18;1.48;;;;;;;;;;5042491;28;20414;-82
2023/11/20 11:06:09;;;;;;;5.10;1.50;;;;;;;;;;5041160;28;20479;-82
2023/11/20 11:08:36;;;;;;;6.43;1.67;;;;;;;;;;5041964;28;20729;-83
2023/11/20 11:11:03;;;;;;;4.63;1.42;;;;;;;;;;5040104;28;20423;-82
2023/11/20 11:13:32;;;;;;;5.38;1.38;;;;;;;;;;5038452;28;20379;-82
2023/11/20 11:18:27;;;;;;;5.03;1.57;;;;;;;;;;5038601;23;20442;-82
2023/11/20 11:20:58;;;;;;;6.57;1.60;;;;;;;;;;5037843;28;20433;-82
2023/11/20 11:23:39;;;;;;;6.00;1.43;;;;;;;;;;5039034;28;20407;-83
2023/11/20 11:26:17;;;;;;;4.97;1.27;;;;;;;;;;5037733;28;20541;-82
2023/11/20 11:28:46;;;;;;;6.60;1.80;;;;;;;;;;5037551;28;20402;-82
2023/11/20 11:31:14;;;;;;;6.05;1.50;;;;;;;;;;5036458;28;20701;-82
2023/11/20 11:33:40;;;;;;;5.85;1.60;;;;;;;;;;5038269;28;20387;-82
2023/11/20 11:36:25;;;;;;;5.67;1.40;;;;;;;;;;5036381;28;20486;-82
2023/11/20 11:39:00;;;;;;;4.22;1.20;;;;;;;;;;5038174;28;20385;-82
2023/11/20 11:41:53;;;;;;;4.70;1.45;;;;;;;;;;5037534;28;20875;-82
2023/11/20 11:44:25;;;;;;;5.13;1.50;;;;;;;;;;5037812;28;20472;-82
2023/11/20 11:46:51;;;;;;;5.13;1.27;;;;;;;;;;5038398;28;20387;-83
2023/11/20 11:49:21;;;;;;;5.07;1.48;;;;;;;;;;5036710;28;20388;-82
2023/11/20 11:51:49;;;;;;;5.18;1.50;;;;;;;;;;5038186;28;20382;-82
2023/11/20 11:54:15;;;;;;;4.90;1.40;;;;;;;;;;5038226;28;20441;-82
2023/11/20 11:57:01;;;;;;;7.47;1.38;;;;;;;;;;5037406;28;20387;-83
2023/11/20 11:59:33;;;;;;;6.85;1.50;;;;;;;;;;5038069;28;20865;-82
2023/11/20 12:01:59;;;;;;;6.05;1.90;;;;;;;;;;5037848;28;20387;-82
2023/11/20 12:04:43;;;;;;;5.45;1.38;;;;;;;;;;5036925;28;20426;-82
2023/11/20 12:07:10;;;;;;;5.43;1.40;;;;;;;;;;5036824;28;20379;-82
2023/11/20 12:09:55;;;;;;;4.85;1.30;;;;;;;;;;5036756;28;20383;-82
2023/11/20 12:12:21;;;;;;;4.70;1.48;;;;;;;;;;5034259;28;20733;-82
2023/11/20 12:14:46;;;;;;;5.80;1.40;;;;;;;;;;5035918;28;20445;-82
2023/11/20 12:17:14;;;;;;;5.43;1.60;;;;;;;;;;5036603;28;20479;-82
2023/11/20 12:19:41;;;;;;;4.75;1.50;;;;;;;;;;5036150;28;20411;-82
2023/11/20 12:22:08;;;;;;;4.97;1.30;;;;;;;;;;5035731;28;20395;-82
2023/11/20 12:24:35;;;;;;;7.63;1.77;;;;;;;;;;5036130;28;20452;-82
2023/11/20 12:27:02;;;;;;;6.15;1.40;;;;;;;;;;5036675;28;20430;-82
2023/11/20 12:29:28;;;;;;;3.10;1.23;;;;;;;;;;5036695;28;20415;-82
2023/11/20 12:31:54;;;;;;;7.25;1.50;;;;;;;;;;5036455;28;20390;-82
2023/11/20 12:34:20;;;;;;;4.70;1.57;;;;;;;;;;5036571;28;20481;-83
2023/11/20 12:36:46;;;;;;;4.90;1.30;;;;;;;;;;5035524;28;20399;-82
2023/11/20 12:39:13;;;;;;;4.22;1.60;;;;;;;;;;5034851;28;20386;-82
2023/11/20 12:41:40;;;;;;;6.47;1.48;;;;;;;;;;5036020;28;20383;-82
2023/11/20 12:44:08;;;;;;;5.28;1.67;;;;;;;;;;5035951;28;20947;-82
2023/11/20 12:46:34;;;;;;;5.33;1.40;;;;;;;;;;5035985;28;20951;-82
2023/11/20 12:49:00;;;;;;;5.38;1.60;;;;;;;;;;5029718;28;20414;-82
2023/11/20 12:51:26;;;;;;;4.60;1.52;;;;;;;;;;5027073;28;20391;-82
2023/11/20 12:53:52;;;;;;;6.73;1.70;;;;;;;;;;5034695;28;20519;-82
2023/11/20 12:56:18;;;;;;;5.25;1.40;;;;;;;;;;5035005;28;20391;-82
2023/11/20 12:58:46;;;;;;;5.97;1.33;;;;;;;;;;5034499;28;20383;-82
2023/11/20 13:01:12;;;;;;;7.60;1.40;;;;;;;;;;5035524;28;20442;-82
2023/11/20 13:03:38;;;;;;;4.90;1.45;;;;;;;;;;5035306;28;20983;-82
2023/11/20 13:06:06;;;;;;;5.55;1.35;;;;;;;;;;5036569;28;20430;-82
2023/11/20 13:08:33;;;;;;;6.88;1.48;;;;;;;;;;5039181;28;20376;-82
2023/11/20 13:10:59;;;;;;;5.97;1.50;;;;;;;;;;5039528;28;20394;-82
2023/11/20 13:13:27;;;;;;;5.35;1.30;;;;;;;;;;5039164;28;20417;-82
2023/11/20 13:15:56;;;;;;;6.97;1.50;;;;;;;;;;5038319;28;20565;-82
2023/11/20 13:18:22;;;;;;;6.05;1.48;;;;;;;;;;5039221;28;20391;-82
2023/11/20 13:20:50;;;;;;;5.10;1.45;;;;;;;;;;5038985;28;20375;-82
2023/11/20 13:23:17;;;;;;;4.25;1.20;;;;;;;;;;5039382;28;20884;-82
2023/11/20 13:25:45;;;;;;;4.38;1.30;;;;;;;;;;5039147;28;20405;-82
2023/11/20 13:28:12;;;;;;;4.50;1.30;;;;;;;;;;5038973;28;20375;-82
2023/11/20 13:31:03;;;;;;;4.30;1.30;;;;;;;;;;5038854;28;20391;-82
2023/11/20 13:33:29;;;;;;;5.10;1.20;;;;;;;;;;5039518;28;20397;-82
2023/11/20 13:35:56;;;;;;;4.82;1.40;;;;;;;;;;5039621;28;20398;-82
2023/11/20 13:38:22;;;;;;;5.68;1.50;;;;;;;;;;5038386;28;20375;-82
2023/11/20 13:40:48;;;;;;;4.18;1.27;;;;;;;;;;5039388;28;20857;-82
2023/11/20 13:43:14;;;;;;;3.38;1.15;;;;;;;;;;5038760;28;20561;-82
2023/11/20 13:45:41;;;;;;;5.32;1.40;;;;;;;;;;5038603;28;20857;-82
2023/11/20 13:48:07;;;;;;;4.73;1.50;;;;;;;;;;5039396;28;20868;-82
2023/11/20 13:50:33;;;;;;;4.57;1.10;;;;;;;;;;5037857;28;20483;-82
2023/11/20 13:53:04;;;;;;;5.88;1.40;;;;;;;;;;5039109;28;20833;-82
2023/11/20 13:55:30;;;;;;;7.53;1.40;;;;;;;;;;5039435;28;20848;-82
2023/11/20 13:57:56;;;;;;;5.68;1.58;;;;;;;;;;5039513;28;20387;-82
2023/11/20 14:00:23;;;;;;;8.63;1.70;;;;;;;;;;5021381;28;20434;-82
2023/11/20 14:02:50;;;;;;;5.97;1.40;;;;;;;;;;5038888;28;20783;-82
2023/11/20 14:05:17;;;;;;;7.45;1.73;;;;;;;;;;5038209;28;20437;-82
2023/11/20 14:07:43;;;;;;;4.40;1.67;;;;;;;;;;5038480;28;20398;-82
2023/11/20 14:10:09;;;;;;;4.82;1.70;;;;;;;;;;5037655;28;20474;-82
2023/11/20 14:12:39;;;;;;;6.70;1.63;;;;;;;;;;5037681;28;20415;-82
2023/11/20 14:15:05;;;;;;;3.95;1.30;;;;;;;;;;5037471;28;20406;-82
2023/11/20 14:17:31;;;;;;;6.75;1.63;;;;;;;;;;5036497;28;20395;-82
2023/11/20 14:19:57;;;;;;;6.35;1.67;;;;;;;;;;5037853;28;20415;-82
2023/11/20 14:22:23;;;;;;;4.47;1.50;;;;;;;;;;5037904;28;20399;-82
2023/11/20 14:24:50;;;;;;;3.67;1.40;;;;;;;;;;5037382;28;20421;-82
2023/11/20 14:27:17;;;;;;;5.07;1.50;;;;;;;;;;5038936;28;20455;-82
2023/11/20 14:29:43;;;;;;;5.47;1.50;;;;;;;;;;5038904;28;20464;-82
2023/11/20 14:32:11;;;;;;;3.70;1.30;;;;;;;;;;5020711;28;20491;-82
2023/11/20 14:34:37;;;;;;;6.25;1.55;;;;;;;;;;5017727;28;20868;-82
2023/11/20 14:37:04;;;;;;;7.70;1.60;;;;;;;;;;5018898;28;20483;-82
2023/11/20 14:39:33;;;;;;;4.80;1.40;;;;;;;;;;5019221;28;20479;-82
2023/11/20 14:41:59;;;;;;;6.05;1.63;;;;;;;;;;5018282;28;20775;-82
2023/11/20 14:44:26;;;;;;;5.65;1.38;;;;;;;;;;5018230;28;20482;-82